Time;durP1;ratioP1;P1;durP2;ratioP2;P2;SDS_P1;SDS_P2;PMS_P1;PMS_P2;Temp;Humidity;BMP_temperature;BMP_pressure;BME280_temperature;BME280_humidity;BME280_pressure;Samples;Min_cycle;Max_cycle;Signal;HPM_P1;HPM_P2
2021/12/20 00:02:05;;;;;;;2.10;2.00;;;23.00;29.20;;;;;;5128673;27;47035;-28
2021/12/20 00:04:32;;;;;;;2.08;1.90;;;23.00;29.10;;;;;;5128096;27;47932;-29
2021/12/20 00:07:00;;;;;;;1.88;1.77;;;23.00;29.10;;;;;;5128102;27;46824;-29
2021/12/20 00:09:27;;;;;;;1.95;1.85;;;23.00;29.10;;;;;;5128098;27;46903;-29
2021/12/20 00:11:53;;;;;;;1.92;1.83;;;23.00;29.10;;;;;;5128693;27;47304;-29
2021/12/20 00:14:20;;;;;;;1.90;1.77;;;23.00;29.10;;;;;;5127529;27;49059;-29
2021/12/20 00:16:47;;;;;;;1.90;1.80;;;23.00;29.20;;;;;;5127590;27;46879;-29
2021/12/20 00:19:14;;;;;;;2.10;1.70;;;23.00;29.20;;;;;;5127581;27;46974;-29
2021/12/20 00:21:41;;;;;;;1.63;1.52;;;23.00;29.20;;;;;;5128183;27;46880;-29
2021/12/20 00:24:09;;;;;;;1.83;1.73;;;23.00;29.20;;;;;;5127480;27;48681;-29
2021/12/20 00:26:35;;;;;;;1.80;1.70;;;23.00;29.10;;;;;;5128205;27;46964;-29
2021/12/20 00:29:02;;;;;;;1.73;1.63;;;23.00;29.20;;;;;;5127515;27;46970;-29
2021/12/20 00:31:29;;;;;;;1.80;1.70;;;23.00;29.20;;;;;;5128276;27;47189;-29
2021/12/20 00:33:56;;;;;;;2.08;1.98;;;23.00;29.20;;;;;;5127674;27;46836;-29
2021/12/20 00:36:24;;;;;;;1.70;1.60;;;23.00;29.10;;;;;;5127976;27;47062;-29
2021/12/20 00:41:36;;;;;;;1.80;1.70;;;23.00;29.20;;;;;;5125172;27;46954;-30
2021/12/20 00:44:03;;;;;;;1.98;1.77;;;23.00;29.10;;;;;;5126914;27;49127;-29
2021/12/20 00:46:30;;;;;;;1.80;1.70;;;23.00;29.10;;;;;;5127758;27;47440;-29
2021/12/20 00:48:57;;;;;;;1.73;1.63;;;23.00;29.10;;;;;;5127239;27;47029;-29
2021/12/20 00:51:23;;;;;;;1.88;1.77;;;23.00;29.10;;;;;;5128014;27;46850;-29
2021/12/20 00:53:50;;;;;;;2.05;1.83;;;23.00;29.10;;;;;;5127145;27;48917;-29
2021/12/20 00:56:17;;;;;;;1.80;1.70;;;23.00;29.10;;;;;;5127607;27;46952;-29
2021/12/20 00:58:45;;;;;;;1.50;1.40;;;23.00;29.10;;;;;;5127288;27;46836;-29
2021/12/20 01:01:11;;;;;;;2.00;1.63;;;23.00;29.10;;;;;;5127427;27;46852;-29
2021/12/20 01:03:38;;;;;;;1.92;1.83;;;23.00;29.10;;;;;;5127247;27;48930;-29
2021/12/20 01:06:05;;;;;;;1.50;1.40;;;23.00;29.10;;;;;;5127154;27;46908;-30
2021/12/20 01:08:35;;;;;;;1.88;1.77;;;23.00;29.10;;;;;;5127058;27;46932;-29
2021/12/20 01:11:02;;;;;;;1.52;1.42;;;23.00;29.10;;;;;;5127464;27;46910;-29
2021/12/20 01:13:32;;;;;;;1.70;1.60;;;23.00;29.00;;;;;;5126858;27;47935;-29
2021/12/20 01:16:04;;;;;;;1.55;1.45;;;23.00;29.10;;;;;;5127231;27;46868;-29
2021/12/20 01:18:30;;;;;;;1.65;1.55;;;23.00;29.10;;;;;;5127257;27;46888;-29
2021/12/20 01:20:57;;;;;;;1.55;1.45;;;23.00;29.10;;;;;;5127281;27;46944;-28
2021/12/20 01:23:24;;;;;;;1.70;1.60;;;23.00;29.10;;;;;;5126952;27;48107;-29
2021/12/20 01:25:50;;;;;;;1.65;1.55;;;22.90;29.10;;;;;;5126960;27;46868;-29
2021/12/20 01:28:17;;;;;;;1.48;1.38;;;22.90;29.10;;;;;;5125830;27;46905;-29
2021/12/20 01:30:44;;;;;;;1.65;1.55;;;22.90;29.10;;;;;;5126997;27;46839;-29
2021/12/20 01:33:13;;;;;;;1.88;1.77;;;22.90;29.10;;;;;;5126640;27;46914;-28
2021/12/20 01:35:40;;;;;;;1.77;1.67;;;22.90;29.10;;;;;;5126799;27;46928;-29
2021/12/20 01:38:06;;;;;;;1.67;1.58;;;22.90;29.10;;;;;;5126615;27;46826;-29
2021/12/20 01:40:34;;;;;;;1.77;1.67;;;22.90;29.10;;;;;;5127267;27;47093;-29
2021/12/20 01:43:01;;;;;;;1.70;1.60;;;22.90;29.10;;;;;;5126741;27;48161;-29
2021/12/20 01:45:28;;;;;;;1.70;1.60;;;22.90;29.10;;;;;;5126477;27;46744;-29
2021/12/20 01:48:03;;;;;;;1.63;1.52;;;22.90;29.10;;;;;;5126434;27;46883;-29
2021/12/20 01:53:20;;;;;;;1.70;1.60;;;22.90;29.10;;;;;;5107059;27;47603;-29
2021/12/20 01:55:47;;;;;;;1.60;1.50;;;22.90;29.00;;;;;;5126764;27;46904;-29
2021/12/20 01:58:14;;;;;;;1.63;1.52;;;22.90;29.00;;;;;;5126313;27;46905;-29
2021/12/20 02:03:21;;;;;;;2.00;1.90;;;22.90;29.00;;;;;;5125942;27;46776;-28
2021/12/20 02:05:54;;;;;;;1.58;1.48;;;22.90;29.10;;;;;;5126511;27;46784;-29
2021/12/20 02:08:23;;;;;;;1.92;1.80;;;22.90;29.10;;;;;;5126155;27;46960;-29
2021/12/20 02:10:53;;;;;;;1.70;1.60;;;22.90;29.00;;;;;;5126938;27;47274;-29
2021/12/20 02:13:20;;;;;;;1.92;1.83;;;22.90;29.00;;;;;;5126053;27;48111;-29
2021/12/20 02:15:47;;;;;;;1.70;1.60;;;22.90;29.00;;;;;;5126189;27;46955;-29
2021/12/20 02:18:14;;;;;;;1.67;1.58;;;22.90;29.00;;;;;;5126594;27;46867;-29
2021/12/20 02:20:42;;;;;;;2.00;1.90;;;22.90;29.00;;;;;;5126188;27;47258;-29
2021/12/20 02:23:08;;;;;;;1.92;1.83;;;22.90;29.00;;;;;;5125885;27;47091;-29
2021/12/20 02:25:35;;;;;;;1.90;1.70;;;22.90;29.00;;;;;;5126214;27;46930;-29
2021/12/20 02:28:05;;;;;;;1.60;1.50;;;22.90;29.00;;;;;;5126216;27;46827;-28
2021/12/20 02:38:51;;;;;;;1.88;1.70;;;22.90;29.00;;;;;;5123921;27;46898;-29
2021/12/20 02:41:19;;;;;;;1.50;1.40;;;22.90;29.00;;;;;;5129669;27;46975;-29
2021/12/20 02:43:53;;;;;;;1.85;1.75;;;22.90;29.00;;;;;;5129183;27;48776;-29
2021/12/20 02:46:30;;;;;;;1.70;1.60;;;22.90;29.00;;;;;;5129668;27;46906;-29
2021/12/20 02:48:57;;;;;;;1.70;1.60;;;22.80;29.00;;;;;;5129232;27;46825;-29
2021/12/20 02:51:26;;;;;;;2.03;1.70;;;22.90;29.00;;;;;;5129664;27;47345;-30
2021/12/20 02:53:53;;;;;;;1.90;1.80;;;22.90;29.00;;;;;;5128928;27;48248;-29
2021/12/20 02:56:20;;;;;;;1.70;1.60;;;22.90;29.00;;;;;;5129422;27;46762;-29
2021/12/20 02:58:46;;;;;;;1.63;1.52;;;22.80;29.00;;;;;;5129531;27;46937;-29
2021/12/20 03:01:13;;;;;;;1.70;1.60;;;22.80;29.00;;;;;;5129560;27;47186;-28
2021/12/20 03:03:40;;;;;;;1.75;1.65;;;22.90;29.00;;;;;;5129096;27;49047;-29
2021/12/20 03:06:11;;;;;;;1.92;1.83;;;22.90;29.00;;;;;;5129397;27;47176;-29
2021/12/20 03:08:39;;;;;;;1.75;1.60;;;22.80;29.00;;;;;;5129348;27;46764;-29
2021/12/20 03:11:06;;;;;;;1.98;1.88;;;22.80;29.00;;;;;;5129319;27;46913;-30
2021/12/20 03:13:33;;;;;;;1.80;1.70;;;22.80;29.00;;;;;;5128800;27;47869;-29
2021/12/20 03:16:00;;;;;;;1.63;1.52;;;22.80;29.00;;;;;;5129221;27;47015;-29
2021/12/20 03:18:26;;;;;;;1.77;1.67;;;22.80;29.00;;;;;;5128955;27;46765;-30
2021/12/20 03:20:53;;;;;;;1.80;1.70;;;22.80;29.10;;;;;;5129115;27;46910;-29
2021/12/20 03:23:20;;;;;;;1.80;1.70;;;22.80;29.10;;;;;;5128877;27;49045;-29
2021/12/20 03:25:48;;;;;;;1.60;1.50;;;22.70;29.00;;;;;;5128843;27;46896;-29
2021/12/20 03:28:15;;;;;;;1.70;1.60;;;22.70;29.00;;;;;;5128902;27;46946;-29
2021/12/20 03:30:42;;;;;;;2.00;1.80;;;22.70;29.10;;;;;;5129130;27;47226;-29
2021/12/20 03:33:09;;;;;;;1.77;1.60;;;22.70;29.10;;;;;;5128428;27;48994;-29
2021/12/20 03:35:36;;;;;;;2.17;1.98;;;22.70;29.10;;;;;;5128717;27;47136;-29
2021/12/20 03:38:02;;;;;;;1.58;1.48;;;22.70;29.00;;;;;;5128517;27;46856;-30
2021/12/20 03:40:29;;;;;;;2.05;1.60;;;22.70;29.10;;;;;;5128614;27;46735;-29
2021/12/20 03:42:57;;;;;;;2.00;1.90;;;22.70;29.10;;;;;;5128561;27;49124;-29
2021/12/20 03:45:24;;;;;;;1.58;1.48;;;22.70;29.10;;;;;;5128082;27;47250;-29
2021/12/20 03:47:51;;;;;;;1.90;1.80;;;22.70;29.60;;;;;;5128707;27;46979;-29
2021/12/20 03:50:17;;;;;;;1.67;1.50;;;22.70;29.10;;;;;;5128167;27;46911;-29
2021/12/20 03:52:44;;;;;;;1.60;1.50;;;22.70;29.10;;;;;;5128406;27;48132;-29
2021/12/20 03:55:12;;;;;;;2.05;1.85;;;22.70;29.10;;;;;;5128532;27;47123;-29
2021/12/20 03:57:39;;;;;;;1.88;1.77;;;22.70;29.10;;;;;;5128341;27;46858;-29
2021/12/20 04:00:10;;;;;;;1.73;1.63;;;22.70;29.10;;;;;;5128504;27;46858;-29
2021/12/20 04:02:41;;;;;;;1.88;1.77;;;22.70;29.10;;;;;;5127917;27;47939;-29
2021/12/20 04:05:07;;;;;;;1.67;1.58;;;22.70;29.10;;;;;;5128298;27;47132;-29
2021/12/20 04:07:34;;;;;;;1.83;1.73;;;22.60;29.00;;;;;;5128206;27;47035;-29
2021/12/20 04:10:01;;;;;;;1.52;1.42;;;22.60;29.00;;;;;;5128320;27;47024;-29
2021/12/20 04:12:28;;;;;;;1.85;1.70;;;22.70;29.10;;;;;;5128304;27;46949;-29
2021/12/20 04:14:54;;;;;;;1.73;1.63;;;22.60;29.00;;;;;;5127959;27;46854;-29
2021/12/20 04:17:22;;;;;;;1.58;1.48;;;22.70;29.00;;;;;;5128307;27;46895;-29
2021/12/20 04:19:49;;;;;;;1.80;1.70;;;22.60;29.00;;;;;;5128006;27;47277;-29
2021/12/20 04:22:18;;;;;;;1.70;1.60;;;22.70;29.00;;;;;;5127799;27;46904;-29
2021/12/20 04:24:45;;;;;;;1.75;1.65;;;22.70;29.00;;;;;;5127684;27;46868;-29
2021/12/20 04:27:11;;;;;;;1.92;1.83;;;22.70;29.00;;;;;;5127866;27;46869;-29
2021/12/20 04:29:38;;;;;;;1.70;1.60;;;22.60;29.00;;;;;;5127623;27;47219;-29
2021/12/20 04:32:05;;;;;;;1.70;1.60;;;22.60;29.00;;;;;;5127647;27;48194;-29
2021/12/20 04:34:33;;;;;;;1.92;1.83;;;22.60;28.90;;;;;;5127488;27;46830;-29
2021/12/20 04:37:00;;;;;;;2.20;2.00;;;22.60;28.90;;;;;;5127934;27;46898;-29
2021/12/20 04:39:30;;;;;;;1.50;1.40;;;22.60;29.50;;;;;;5127550;27;47381;-29
2021/12/20 04:41:57;;;;;;;1.83;1.70;;;22.60;29.00;;;;;;5127308;27;49150;-29
2021/12/20 04:44:24;;;;;;;1.90;1.80;;;22.60;29.00;;;;;;5127196;27;46801;-29
2021/12/20 04:46:50;;;;;;;1.60;1.50;;;22.60;28.90;;;;;;5127539;27;46957;-29
2021/12/20 04:49:17;;;;;;;1.63;1.52;;;22.60;28.90;;;;;;5127610;27;46959;-29
2021/12/20 04:51:45;;;;;;;2.00;1.90;;;22.60;28.90;;;;;;5127655;27;48740;-29
2021/12/20 04:54:12;;;;;;;1.70;1.60;;;22.60;28.90;;;;;;5127470;27;46876;-29
2021/12/20 04:56:38;;;;;;;1.63;1.52;;;22.60;28.90;;;;;;5127492;27;46856;-29
2021/12/20 04:59:05;;;;;;;1.90;1.60;;;22.60;28.90;;;;;;5127313;27;46913;-29
2021/12/20 05:01:32;;;;;;;1.55;1.45;;;22.60;28.90;;;;;;5127237;27;49114;-29
2021/12/20 05:03:59;;;;;;;1.75;1.65;;;22.60;28.90;;;;;;5125867;27;46861;-29
2021/12/20 05:06:26;;;;;;;1.60;1.50;;;22.70;28.90;;;;;;5127548;27;46875;-29
2021/12/20 05:08:55;;;;;;;1.77;1.67;;;22.70;28.80;;;;;;5127020;27;47237;-29
2021/12/20 05:11:23;;;;;;;1.60;1.50;;;22.70;28.90;;;;;;5127250;27;47047;-29
2021/12/20 05:13:50;;;;;;;1.60;1.50;;;22.60;28.80;;;;;;5126750;27;46903;-29
2021/12/20 05:16:17;;;;;;;2.33;1.60;;;22.60;28.90;;;;;;5127500;27;46942;-29
2021/12/20 05:18:43;;;;;;;1.70;1.60;;;22.70;28.80;;;;;;5127102;27;46879;-29
2021/12/20 05:21:10;;;;;;;1.60;1.50;;;22.70;28.80;;;;;;5126657;27;49070;-29
2021/12/20 05:23:37;;;;;;;1.75;1.65;;;22.70;28.70;;;;;;5126702;27;47015;-29
2021/12/20 05:26:05;;;;;;;1.48;1.38;;;22.70;28.70;;;;;;5127159;27;46852;-29
2021/12/20 05:28:31;;;;;;;1.50;1.40;;;22.70;28.80;;;;;;5127302;27;47260;-29
2021/12/20 05:30:58;;;;;;;2.13;1.92;;;22.70;28.70;;;;;;5127022;27;48143;-29
2021/12/20 05:33:26;;;;;;;1.55;1.45;;;22.70;28.70;;;;;;5126750;27;47146;-29
2021/12/20 05:35:53;;;;;;;1.50;1.40;;;22.70;28.70;;;;;;5126909;27;46810;-29
2021/12/20 05:38:20;;;;;;;1.70;1.60;;;22.70;28.70;;;;;;5127078;27;47078;-29
2021/12/20 05:40:47;;;;;;;1.58;1.48;;;22.70;28.70;;;;;;5126804;27;48033;-29
2021/12/20 05:43:15;;;;;;;1.58;1.48;;;22.70;28.70;;;;;;5126418;27;46779;-29
2021/12/20 05:45:41;;;;;;;1.45;1.35;;;22.70;28.70;;;;;;5126818;27;47143;-29
2021/12/20 05:48:08;;;;;;;1.70;1.60;;;22.70;28.70;;;;;;5126522;27;46915;-29
2021/12/20 05:50:35;;;;;;;1.65;1.55;;;22.70;28.70;;;;;;5126226;27;47022;-29
2021/12/20 05:53:01;;;;;;;1.70;1.60;;;22.70;28.70;;;;;;5126222;27;46806;-28
2021/12/20 05:55:28;;;;;;;1.55;1.45;;;22.70;28.70;;;;;;5126362;27;46774;-29
2021/12/20 05:57:55;;;;;;;1.58;1.48;;;22.70;28.70;;;;;;5126564;27;46931;-29
2021/12/20 06:00:23;;;;;;;1.60;1.50;;;22.60;28.70;;;;;;5126294;27;48115;-29
2021/12/20 06:02:50;;;;;;;1.52;1.42;;;22.60;28.70;;;;;;5126404;27;46906;-29
2021/12/20 06:05:17;;;;;;;1.63;1.52;;;22.60;28.70;;;;;;5126478;27;46877;-29
2021/12/20 06:07:44;;;;;;;1.65;1.55;;;22.60;28.70;;;;;;5126379;27;47288;-29
2021/12/20 06:10:13;;;;;;;1.60;1.50;;;22.60;28.70;;;;;;5126288;27;47839;-29
2021/12/20 06:12:40;;;;;;;1.70;1.60;;;22.60;28.70;;;;;;5126081;27;46817;-29
2021/12/20 06:15:07;;;;;;;1.65;1.55;;;22.60;28.70;;;;;;5129220;27;46836;-29
2021/12/20 06:17:35;;;;;;;1.60;1.50;;;22.60;28.60;;;;;;5130350;27;47075;-29
2021/12/20 06:20:02;;;;;;;1.23;1.20;;;22.60;28.70;;;;;;5129669;27;49106;-29
2021/12/20 06:22:29;;;;;;;1.75;1.50;;;22.60;28.70;;;;;;5129730;27;47269;-29
2021/12/20 06:24:56;;;;;;;1.80;1.70;;;22.60;28.70;;;;;;5129713;27;46821;-29
2021/12/20 06:27:22;;;;;;;1.65;1.55;;;22.60;28.60;;;;;;5130233;27;47278;-29
2021/12/20 06:29:49;;;;;;;1.48;1.38;;;22.60;28.60;;;;;;5129605;27;47027;-29
2021/12/20 06:32:16;;;;;;;1.67;1.58;;;22.60;28.60;;;;;;5129859;27;46845;-28
2021/12/20 06:34:44;;;;;;;1.60;1.50;;;22.60;28.60;;;;;;5129336;27;46874;-29
2021/12/20 06:37:12;;;;;;;1.80;1.70;;;22.60;28.60;;;;;;5130189;27;46913;-29
2021/12/20 06:39:38;;;;;;;1.52;1.42;;;22.60;28.50;;;;;;5129188;27;47247;-29
2021/12/20 06:42:05;;;;;;;1.73;1.63;;;22.60;28.50;;;;;;5128079;27;46912;-29
2021/12/20 06:44:32;;;;;;;1.67;1.58;;;22.60;28.50;;;;;;5128994;27;46915;-29
2021/12/20 06:46:59;;;;;;;1.73;1.63;;;22.60;28.60;;;;;;5129769;27;46953;-29
2021/12/20 06:49:26;;;;;;;1.65;1.55;;;22.60;28.60;;;;;;5128916;27;49047;-29
2021/12/20 06:51:58;;;;;;;1.80;1.70;;;22.60;28.50;;;;;;5129575;27;47480;-29
2021/12/20 06:54:25;;;;;;;2.03;1.88;;;22.60;28.50;;;;;;5129373;27;46810;-29
2021/12/20 06:56:52;;;;;;;1.67;1.58;;;22.60;28.50;;;;;;5129807;27;47063;-29
2021/12/20 06:59:18;;;;;;;2.15;1.70;;;22.60;28.60;;;;;;5129319;27;47840;-29
2021/12/20 07:01:45;;;;;;;1.80;1.70;;;22.60;28.50;;;;;;5128990;27;46796;-29
2021/12/20 07:04:12;;;;;;;1.70;1.60;;;22.60;28.50;;;;;;5129058;27;47137;-29
2021/12/20 07:06:39;;;;;;;1.75;1.65;;;22.60;28.50;;;;;;5129301;27;47001;-29
2021/12/20 07:09:08;;;;;;;1.67;1.58;;;22.60;28.50;;;;;;5128828;27;48026;-29
2021/12/20 07:11:34;;;;;;;1.50;1.40;;;22.60;28.50;;;;;;5129010;27;46973;-29
2021/12/20 07:14:01;;;;;;;1.60;1.50;;;22.60;28.50;;;;;;5128845;27;47025;-29
2021/12/20 07:16:32;;;;;;;1.67;1.50;;;22.60;28.40;;;;;;5128767;27;46914;-29
2021/12/20 07:18:58;;;;;;;1.70;1.60;;;22.60;28.50;;;;;;5128788;27;48105;-29
2021/12/20 07:21:25;;;;;;;1.60;1.50;;;22.60;28.50;;;;;;5129251;27;47499;-20
2021/12/20 07:23:52;;;;;;;1.83;1.73;;;22.60;28.40;;;;;;5128636;27;46828;-20
2021/12/20 07:26:20;;;;;;;1.70;1.60;;;22.60;28.40;;;;;;5127918;27;46907;-20
2021/12/20 07:28:47;;;;;;;1.67;1.58;;;22.60;28.50;;;;;;5128773;27;46793;-19
2021/12/20 07:31:14;;;;;;;1.70;1.60;;;22.60;28.50;;;;;;5129064;27;46910;-19
2021/12/20 07:33:40;;;;;;;1.73;1.63;;;22.60;28.50;;;;;;5128809;27;46780;-19
2021/12/20 07:36:07;;;;;;;1.80;1.65;;;22.60;28.50;;;;;;5128886;27;46922;-19
2021/12/20 07:38:35;;;;;;;1.80;1.70;;;22.60;28.40;;;;;;5128702;27;48931;-29
2021/12/20 07:41:02;;;;;;;1.60;1.50;;;22.60;28.50;;;;;;5128769;27;46887;-29
2021/12/20 07:43:30;;;;;;;1.98;1.80;;;22.50;28.50;;;;;;5128231;27;46864;-29
2021/12/20 07:45:56;;;;;;;1.65;1.55;;;22.60;28.50;;;;;;5128987;27;46886;-29
2021/12/20 07:48:23;;;;;;;1.88;1.77;;;22.60;28.50;;;;;;5128058;27;47073;-29
2021/12/20 07:50:51;;;;;;;1.88;1.77;;;22.50;28.40;;;;;;5128414;27;46957;-29
2021/12/20 07:53:18;;;;;;;1.85;1.75;;;22.50;28.40;;;;;;5128748;27;46868;-29
2021/12/20 07:55:44;;;;;;;1.73;1.58;;;22.50;28.40;;;;;;5128488;27;46888;-29
2021/12/20 07:58:11;;;;;;;2.20;1.83;;;22.60;28.40;;;;;;5128185;27;47868;-28
2021/12/20 08:00:39;;;;;;;2.00;1.90;;;22.60;28.90;;;;;;5128329;27;46862;-29
2021/12/20 08:03:06;;;;;;;2.05;1.95;;;22.50;28.40;;;;;;5128177;27;46746;-29
2021/12/20 08:05:33;;;;;;;1.55;1.38;;;22.60;28.40;;;;;;5128197;27;46784;-29
2021/12/20 08:08:00;;;;;;;1.67;1.58;;;22.60;28.40;;;;;;5127895;27;48826;-29
2021/12/20 08:10:27;;;;;;;1.70;1.60;;;22.60;28.40;;;;;;5128352;27;47180;-29
2021/12/20 08:12:54;;;;;;;1.80;1.70;;;22.60;28.40;;;;;;5127938;27;47071;-29
2021/12/20 08:15:22;;;;;;;1.75;1.60;;;22.60;28.40;;;;;;5128214;27;47254;-29
2021/12/20 08:17:50;;;;;;;1.98;1.88;;;22.60;28.40;;;;;;5128075;27;48104;-29
2021/12/20 08:20:17;;;;;;;1.70;1.60;;;22.60;28.40;;;;;;5127720;27;46879;-29
2021/12/20 08:22:43;;;;;;;1.70;1.60;;;22.60;28.40;;;;;;5127929;27;46896;-29
2021/12/20 08:25:10;;;;;;;1.75;1.65;;;22.60;28.40;;;;;;5127752;27;46866;-29
2021/12/20 08:27:37;;;;;;;1.98;1.77;;;22.60;28.40;;;;;;5127578;27;49053;-29
2021/12/20 08:30:05;;;;;;;1.70;1.60;;;22.60;28.40;;;;;;5127653;27;46958;-29
2021/12/20 08:32:31;;;;;;;1.92;1.83;;;22.60;28.30;;;;;;5127851;27;46901;-28
2021/12/20 08:34:59;;;;;;;1.90;1.70;;;22.60;28.30;;;;;;5127606;27;46918;-29
2021/12/20 08:37:26;;;;;;;1.70;1.60;;;22.60;28.40;;;;;;5127639;27;48212;-29
2021/12/20 08:39:53;;;;;;;1.52;1.42;;;22.60;28.40;;;;;;5127641;27;47011;-29
2021/12/20 08:42:20;;;;;;;1.88;1.77;;;22.60;28.40;;;;;;5127885;27;46876;-29
2021/12/20 08:44:47;;;;;;;1.75;1.65;;;22.60;28.40;;;;;;5127351;27;47046;-29
2021/12/20 08:47:14;;;;;;;1.70;1.60;;;22.60;28.40;;;;;;5127616;27;47065;-29
2021/12/20 08:49:40;;;;;;;2.28;2.08;;;22.60;28.40;;;;;;5127289;27;46910;-29
2021/12/20 08:52:09;;;;;;;1.63;1.52;;;22.60;28.40;;;;;;5127641;27;46750;-28
2021/12/20 08:54:35;;;;;;;1.73;1.63;;;22.60;28.40;;;;;;5127010;27;46907;-29
2021/12/20 08:57:02;;;;;;;1.83;1.70;;;22.60;28.30;;;;;;5127786;27;49056;-29
2021/12/20 08:59:29;;;;;;;1.77;1.67;;;22.60;28.40;;;;;;5126994;27;46853;-29
2021/12/20 09:01:57;;;;;;;1.90;1.75;;;22.60;28.40;;;;;;5127325;27;47030;-29
2021/12/20 09:04:24;;;;;;;2.13;1.92;;;22.60;28.40;;;;;;5127468;27;46875;-29
2021/12/20 09:06:50;;;;;;;1.80;1.70;;;22.70;28.40;;;;;;5127393;27;46854;-30
2021/12/20 09:09:19;;;;;;;2.13;1.92;;;22.70;28.40;;;;;;5126847;27;46870;-29
2021/12/20 09:11:46;;;;;;;1.70;1.60;;;22.70;28.40;;;;;;5127430;27;46883;-29
2021/12/20 09:14:12;;;;;;;4.57;2.53;;;22.70;28.40;;;;;;5125972;27;47062;-30
2021/12/20 09:16:39;;;;;;;5.70;2.78;;;22.60;27.00;;;;;;5126191;27;48061;-30
2021/12/20 09:19:06;;;;;;;5.68;2.90;;;22.20;27.10;;;;;;5125383;27;47092;-31
2021/12/20 09:21:33;;;;;;;2.80;2.60;;;21.80;27.80;;;;;;5126058;27;46961;-30
2021/12/20 09:24:00;;;;;;;3.67;2.70;;;21.50;28.10;;;;;;5126516;27;47295;-31
2021/12/20 09:26:29;;;;;;;5.15;2.55;;;21.30;28.50;;;;;;5127164;27;47953;-31
2021/12/20 09:28:55;;;;;;;2.50;2.30;;;21.10;28.70;;;;;;5126453;27;46991;-31
2021/12/20 09:31:22;;;;;;;5.47;2.60;;;21.00;29.00;;;;;;5126949;27;46826;-32
2021/12/20 09:33:49;;;;;;;5.57;2.63;;;20.90;29.20;;;;;;5126958;27;47281;-31
2021/12/20 09:36:15;;;;;;;4.78;2.65;;;20.80;29.30;;;;;;5126661;27;48761;-30
2021/12/20 09:38:42;;;;;;;2.92;2.55;;;20.70;29.50;;;;;;5126007;27;46900;-30
2021/12/20 09:41:27;;;;;;;6.07;2.53;;;20.70;29.50;;;;;;5126711;27;46832;-29
2021/12/20 09:43:56;;;;;;;6.32;2.42;;;20.60;29.60;;;;;;5121682;27;46876;-30
2021/12/20 09:46:24;;;;;;;3.50;2.40;;;20.50;29.60;;;;;;5121035;27;47021;-30
2021/12/20 09:48:51;;;;;;;5.72;2.92;;;20.40;29.80;;;;;;5121615;27;47154;-33
2021/12/20 09:51:18;;;;;;;3.42;2.55;;;20.40;30.00;;;;;;5126414;27;46879;-30
2021/12/20 09:53:45;;;;;;;4.47;2.40;;;20.30;30.00;;;;;;5126188;27;47280;-19
2021/12/20 09:56:11;;;;;;;2.88;2.38;;;20.30;30.40;;;;;;5125952;27;48725;-20
2021/12/20 09:58:39;;;;;;;5.85;2.70;;;20.30;30.30;;;;;;5126062;27;47105;-19
2021/12/20 10:01:08;;;;;;;3.05;2.53;;;20.30;30.30;;;;;;5126414;27;47003;-22
2021/12/20 10:03:35;;;;;;;4.68;2.83;;;20.30;30.30;;;;;;5125947;27;46946;-20
2021/12/20 10:06:02;;;;;;;4.05;2.40;;;20.30;30.30;;;;;;5126061;27;48886;-19
2021/12/20 10:08:33;;;;;;;2.90;2.60;;;20.20;30.50;;;;;;5124967;27;47268;-21
2021/12/20 10:11:00;;;;;;;2.72;2.53;;;20.20;30.50;;;;;;5126020;27;46958;-21
2021/12/20 10:13:28;;;;;;;5.28;2.83;;;20.20;30.50;;;;;;5125678;27;47014;-19
2021/12/20 10:15:57;;;;;;;4.00;2.40;;;20.20;30.60;;;;;;5125837;27;48518;-20
2021/12/20 10:18:25;;;;;;;4.40;2.67;;;20.10;30.70;;;;;;5124340;27;46918;-19
2021/12/20 10:20:53;;;;;;;3.58;2.22;;;20.10;30.60;;;;;;5123187;27;46930;-23
2021/12/20 10:23:22;;;;;;;2.80;2.60;;;20.10;30.60;;;;;;5123061;27;47056;-20
2021/12/20 10:25:52;;;;;;;4.13;2.70;;;20.10;30.70;;;;;;5123550;27;48334;-20
2021/12/20 10:28:21;;;;;;;6.68;2.67;;;20.10;30.60;;;;;;5124631;27;46972;-20
2021/12/20 10:30:53;;;;;;;7.88;3.05;;;20.10;30.70;;;;;;5119994;27;47024;-20
2021/12/20 10:33:21;;;;;;;4.47;2.58;;;20.10;30.70;;;;;;5123970;27;47029;-20
2021/12/20 10:35:51;;;;;;;3.72;2.40;;;20.10;30.70;;;;;;5122646;27;48750;-19
2021/12/20 10:38:22;;;;;;;4.85;2.60;;;20.20;30.80;;;;;;5123456;27;47076;-19
2021/12/20 10:40:50;;;;;;;4.80;2.72;;;20.20;30.80;;;;;;5123905;27;46947;-23
2021/12/20 10:43:21;;;;;;;4.07;2.42;;;20.20;30.80;;;;;;5123937;27;47175;-20
2021/12/20 10:45:48;;;;;;;2.88;2.53;;;20.20;30.60;;;;;;5125011;27;48248;-21
2021/12/20 10:48:15;;;;;;;3.15;2.35;;;20.20;30.80;;;;;;5125046;27;47315;-21
2021/12/20 10:50:43;;;;;;;4.18;2.42;;;20.20;30.70;;;;;;5125193;27;47433;-21
2021/12/20 10:53:21;;;;;;;3.90;2.30;;;20.20;30.90;;;;;;5125170;27;47039;-22
2021/12/20 10:55:49;;;;;;;2.55;2.35;;;20.20;30.80;;;;;;5123867;27;47043;-20
2021/12/20 10:58:22;;;;;;;2.92;2.42;;;20.20;30.80;;;;;;5124757;27;46911;-20
2021/12/20 11:01:05;;;;;;;6.57;3.03;;;20.20;30.90;;;;;;5127555;27;46944;-21
2021/12/20 11:03:36;;;;;;;6.88;2.40;;;20.20;31.00;;;;;;5129509;27;47212;-19
2021/12/20 11:06:37;;;;;;;4.55;2.05;;;20.30;30.80;;;;;;5128264;27;47969;-22
2021/12/20 11:09:13;;;;;;;6.32;2.75;;;20.30;30.80;;;;;;5129121;27;46824;-19
2021/12/20 11:11:40;;;;;;;3.58;2.22;;;20.40;30.70;;;;;;5128643;27;46871;-20
2021/12/20 11:14:08;;;;;;;3.72;2.40;;;20.40;30.80;;;;;;5128756;27;47105;-19
2021/12/20 11:16:35;;;;;;;6.43;2.50;;;20.40;30.70;;;;;;5127581;27;47298;-20
2021/12/20 11:19:16;;;;;;;3.75;2.40;;;20.40;30.80;;;;;;5127639;27;46831;-21
2021/12/20 11:22:00;;;;;;;3.75;2.40;;;20.50;30.60;;;;;;5125832;27;46944;-20
2021/12/20 11:24:32;;;;;;;3.13;2.20;;;20.50;30.60;;;;;;5117666;27;46941;-19
2021/12/20 11:27:00;;;;;;;4.10;2.10;;;20.60;30.20;;;;;;5126708;27;48928;-20
2021/12/20 11:29:27;;;;;;;2.50;2.05;;;20.60;30.30;;;;;;5127567;27;47138;-19
2021/12/20 11:31:53;;;;;;;3.67;2.03;;;20.60;30.20;;;;;;5127546;27;47096;-20
2021/12/20 11:34:20;;;;;;;3.92;2.28;;;20.70;30.30;;;;;;5126762;27;46940;-19
2021/12/20 11:36:47;;;;;;;2.60;2.40;;;20.70;30.50;;;;;;5128522;27;47723;-19
2021/12/20 11:39:14;;;;;;;2.35;2.10;;;20.70;30.60;;;;;;5128590;27;47212;-19
2021/12/20 11:41:42;;;;;;;2.47;2.28;;;20.80;30.50;;;;;;5133234;27;46983;-21
2021/12/20 11:44:13;;;;;;;2.05;1.88;;;20.80;30.40;;;;;;5127805;27;46938;-19
2021/12/20 11:46:52;;;;;;;4.05;2.17;;;20.80;30.30;;;;;;5128549;27;46793;-17
2021/12/20 11:49:21;;;;;;;4.57;2.00;;;20.80;30.40;;;;;;5128155;27;47100;-19
2021/12/20 11:52:06;;;;;;;2.20;2.00;;;20.80;30.50;;;;;;5128115;27;46890;-18
2021/12/20 11:54:34;;;;;;;2.78;2.25;;;20.80;30.60;;;;;;5127401;27;47050;-19
2021/12/20 11:57:02;;;;;;;2.40;2.20;;;20.80;30.80;;;;;;5127932;27;47869;-20
2021/12/20 11:59:47;;;;;;;3.45;2.42;;;20.80;30.90;;;;;;5127526;27;47075;-22
2021/12/20 12:02:20;;;;;;;5.68;2.40;;;20.70;31.00;;;;;;5126836;27;47024;-19
2021/12/20 12:04:55;;;;;;;3.00;2.47;;;20.70;31.20;;;;;;5126581;27;47245;-19
2021/12/20 12:07:22;;;;;;;2.92;2.45;;;20.60;31.60;;;;;;5126395;27;47779;-19
2021/12/20 12:10:00;;;;;;;6.38;3.85;;;20.60;31.60;;;;;;5126370;27;46995;-18
2021/12/20 12:12:28;;;;;;;2.72;2.50;;;20.70;31.50;;;;;;5125690;27;47001;-19
2021/12/20 12:15:04;;;;;;;3.83;2.35;;;20.70;31.10;;;;;;5125989;27;47088;-18
2021/12/20 12:17:54;;;;;;;7.57;2.70;;;20.70;31.20;;;;;;5127450;27;46929;-20
2021/12/20 12:20:47;;;;;;;6.40;3.40;;;20.70;31.00;;;;;;5127549;27;47086;-19
2021/12/20 12:23:19;;;;;;;8.65;3.80;;;20.70;30.10;;;;;;5121445;27;47085;-17
2021/12/20 12:25:49;;;;;;;9.02;3.13;;;20.60;30.00;;;;;;5128203;27;46976;-16
2021/12/20 12:28:18;;;;;;;3.05;2.78;;;20.60;30.80;;;;;;5126706;27;49049;-18
2021/12/20 12:30:55;;;;;;;6.50;3.00;;;20.50;30.80;;;;;;5126298;27;46965;-17
2021/12/20 12:33:36;;;;;;;4.15;3.30;;;20.40;31.30;;;;;;5107018;27;46866;-20
2021/12/20 12:36:08;;;;;;;5.80;4.03;;;20.40;30.80;;;;;;5109115;27;47213;-20
2021/12/20 12:38:37;;;;;;;4.97;4.03;;;20.10;29.30;;;;;;5127678;27;47962;-17
2021/12/20 12:41:26;;;;;;;5.85;4.30;;;19.70;29.60;;;;;;5127710;27;46928;-18
2021/12/20 12:43:57;;;;;;;6.38;3.78;;;19.40;29.70;;;;;;5122515;27;47023;-17
2021/12/20 12:46:43;;;;;;;4.53;3.72;;;19.20;30.00;;;;;;5126505;27;47099;-18
2021/12/20 12:49:31;;;;;;;7.32;3.60;;;19.30;30.90;;;;;;5126858;27;48225;-17
2021/12/20 12:51:58;;;;;;;10.35;5.43;;;19.30;31.00;;;;;;5126491;27;46847;-18
2021/12/20 12:54:36;;;;;;;9.25;5.97;;;19.30;31.10;;;;;;5125837;27;46870;-17
2021/12/20 12:57:27;;;;;;;6.72;4.13;;;19.40;31.40;;;;;;5126205;27;47204;-18
2021/12/20 13:00:07;;;;;;;4.50;4.05;;;19.50;31.60;;;;;;5126080;27;47973;-17
2021/12/20 13:02:35;;;;;;;6.50;3.70;;;19.50;31.60;;;;;;5127415;27;47643;-18
2021/12/20 13:05:06;;;;;;;4.25;3.53;;;19.60;31.60;;;;;;5127221;27;46956;-18
2021/12/20 13:07:34;;;;;;;5.75;3.70;;;19.60;31.70;;;;;;5113464;27;47628;-18
2021/12/20 13:10:03;;;;;;;4.13;3.45;;;19.60;31.60;;;;;;5106497;27;48096;-17
2021/12/20 13:12:37;;;;;;;4.53;3.08;;;19.70;31.80;;;;;;5120296;27;47010;-17